Edgewater, New Jersey
Current Conditions -  °F | °C
As of 9:51 AM on Thursday 30 Oct 2014 (Local Time) from KNYC Reporting Station
Scattered Clouds Scattered Clouds  
Wind Chill: 50°   Ceiling: Unl
Heat Index: 50°   Visibility: 10mi
Dew Point: 40°   Wind: 3mph
Humidity: 68%   Direction: NA
Pressure: 30.03"   Gusts: NA
Location:  40.83°N, 73.97°W
Report Text: KNYC 301351Z AUTO VRB03KT 10SM SCT070 10/04 A3003 RMK AO2 SLP160 T01000044 $
Loading
Personal Weather Stations






























Interactive Weather Map New forecast layout! Learn more

10-Day Weather Forecast

Advertisements
Track Severe Weather on mobile